Time;durP1;ratioP1;P1;durP2;ratioP2;P2;SDS_P1;SDS_P2;PMS_P1;PMS_P2;Temp;Humidity;BMP_temperature;BMP_pressure;BME280_temperature;BME280_humidity;BME280_pressure;Samples;Min_cycle;Max_cycle;Signal;HPM_P1;HPM_P2
2023/04/12 00:01:37;;;;;;;3.65;0.90;;;5.60;99.90;;;;;;4940109;29;20035;-91
2023/04/12 00:04:08;;;;;;;5.93;1.00;;;5.60;99.90;;;;;;4940374;29;20036;-92
2023/04/12 00:06:35;;;;;;;3.97;0.77;;;5.50;99.90;;;;;;4940200;29;20112;-93
2023/04/12 00:09:01;;;;;;;3.05;0.50;;;5.50;99.90;;;;;;4940725;29;20024;-93
2023/04/12 00:11:27;;;;;;;0.85;0.30;;;5.50;99.90;;;;;;4949259;29;20042;-93
2023/04/12 00:13:54;;;;;;;3.40;0.55;;;5.40;99.90;;;;;;4952516;29;20028;-93
2023/04/12 00:16:20;;;;;;;1.17;0.47;;;5.30;99.90;;;;;;4952734;29;20032;-93
2023/04/12 00:18:45;;;;;;;1.67;0.60;;;5.20;99.90;;;;;;4949498;29;20031;-91
2023/04/12 00:21:12;;;;;;;1.58;0.47;;;5.20;99.90;;;;;;4949830;29;20059;-92
2023/04/12 00:23:38;;;;;;;3.08;0.50;;;5.00;99.90;;;;;;4941428;29;20032;-92
2023/04/12 00:26:04;;;;;;;3.05;0.70;;;5.00;99.90;;;;;;4939367;29;20114;-93
2023/04/12 00:28:29;;;;;;;1.45;0.63;;;4.90;99.90;;;;;;4944467;29;20054;-93
2023/04/12 00:30:55;;;;;;;6.20;0.70;;;4.90;99.90;;;;;;4950801;29;20452;-92
2023/04/12 00:33:21;;;;;;;3.28;0.55;;;4.80;99.90;;;;;;4942180;29;20052;-93
2023/04/12 00:35:46;;;;;;;3.85;0.90;;;4.80;99.90;;;;;;4949458;29;20052;-92
2023/04/12 00:38:14;;;;;;;1.70;0.60;;;4.80;99.90;;;;;;4951866;29;20401;-90
2023/04/12 00:40:41;;;;;;;8.65;1.00;;;4.80;99.90;;;;;;4956793;29;20034;-93
2023/04/12 00:43:07;;;;;;;8.63;0.90;;;4.80;99.90;;;;;;4955141;29;20020;-91
2023/04/12 00:45:34;;;;;;;9.38;1.08;;;4.70;99.90;;;;;;4941586;29;20056;-91
2023/04/12 00:48:00;;;;;;;5.53;0.80;;;4.70;99.90;;;;;;4943026;29;20024;-92
2023/04/12 00:50:29;;;;;;;5.55;0.80;;;4.70;99.90;;;;;;4943007;29;20047;-92
2023/04/12 00:52:57;;;;;;;5.10;1.63;;;4.70;99.90;;;;;;4941953;29;20031;-91
2023/04/12 00:55:23;;;;;;;4.38;1.10;;;4.80;99.90;;;;;;4947823;29;20094;-92
2023/04/12 00:57:50;;;;;;;3.13;0.85;;;4.70;99.90;;;;;;4942950;29;20028;-93
2023/04/12 01:00:16;;;;;;;5.22;1.92;;;4.70;99.90;;;;;;4946643;29;20024;-91
2023/04/12 01:02:45;;;;;;;5.35;0.90;;;4.80;99.90;;;;;;4942227;29;20034;-93
2023/04/12 01:05:13;;;;;;;4.68;0.70;;;4.70;99.90;;;;;;4940961;29;20063;-91
2023/04/12 01:08:05;;;;;;;5.55;1.00;;;4.70;99.90;;;;;;4955359;29;20047;-91
2023/04/12 01:10:36;;;;;;;8.98;1.45;;;4.70;99.90;;;;;;4944107;29;20046;-91
2023/04/12 01:13:10;;;;;;;5.30;0.98;;;4.60;99.90;;;;;;4957352;28;20031;-91
2023/04/12 01:15:54;;;;;;;5.38;1.20;;;4.60;99.90;;;;;;4956437;29;20389;-92
2023/04/12 01:18:24;;;;;;;3.33;0.82;;;4.60;99.90;;;;;;4955554;28;20032;-91
2023/04/12 01:21:03;;;;;;;5.68;1.38;;;4.60;99.90;;;;;;4942944;28;20020;-93
2023/04/12 01:23:56;;;;;;;10.00;1.60;;;4.60;99.90;;;;;;4927134;29;20050;-92
2023/04/12 01:26:45;;;;;;;4.15;0.98;;;4.50;99.90;;;;;;4938999;29;20028;-93
2023/04/12 01:29:16;;;;;;;14.60;1.25;;;4.50;99.90;;;;;;4938797;29;20485;-93
2023/04/12 01:32:00;;;;;;;7.70;1.15;;;4.50;99.90;;;;;;4939028;29;20032;-92
2023/04/12 01:34:28;;;;;;;3.10;0.85;;;4.50;99.90;;;;;;4938154;29;20032;-94
2023/04/12 01:36:55;;;;;;;7.43;1.40;;;4.40;99.90;;;;;;4938505;29;20034;-94
2023/04/12 01:39:21;;;;;;;3.00;1.10;;;4.40;99.90;;;;;;4937906;29;20556;-93
2023/04/12 01:41:47;;;;;;;9.02;1.15;;;4.40;99.90;;;;;;4938263;29;20120;-94
2023/04/12 01:44:17;;;;;;;8.43;1.55;;;4.30;99.90;;;;;;4937461;29;20027;-93
2023/04/12 01:46:46;;;;;;;12.07;1.70;;;4.30;99.90;;;;;;4936084;29;20028;-93
2023/04/12 01:49:12;;;;;;;3.58;1.13;;;4.30;99.90;;;;;;4937227;29;20031;-93
2023/04/12 01:51:49;;;;;;;5.20;1.13;;;4.30;99.90;;;;;;4937307;29;20518;-93
2023/04/12 01:54:23;;;;;;;9.02;1.33;;;4.30;99.90;;;;;;4937316;29;20028;-93
2023/04/12 01:56:56;;;;;;;4.55;1.27;;;4.30;99.90;;;;;;4936944;29;20181;-93
2023/04/12 01:59:26;;;;;;;5.80;1.30;;;4.20;99.90;;;;;;4937277;29;20032;-94
2023/04/12 02:01:51;;;;;;;10.60;1.17;;;4.20;99.90;;;;;;4937666;29;20039;-91
2023/04/12 02:04:20;;;;;;;11.55;1.55;;;4.20;99.90;;;;;;4937189;29;20040;-92
2023/04/12 02:06:47;;;;;;;5.63;1.10;;;4.20;99.90;;;;;;4937508;29;20038;-93
2023/04/12 02:09:12;;;;;;;8.25;1.13;;;4.20;99.90;;;;;;4936832;29;20082;-92
2023/04/12 02:11:38;;;;;;;5.00;1.00;;;4.20;99.90;;;;;;4937123;29;20040;-93
2023/04/12 02:14:04;;;;;;;4.78;1.20;;;4.20;99.90;;;;;;4939845;29;20031;-94
2023/04/12 02:16:31;;;;;;;11.20;1.52;;;4.20;99.90;;;;;;4936771;29;20058;-92
2023/04/12 02:18:57;;;;;;;5.07;1.25;;;4.10;99.90;;;;;;4936345;29;20024;-94
2023/04/12 02:21:23;;;;;;;6.82;1.95;;;4.10;99.90;;;;;;4936621;29;20027;-93
2023/04/12 02:23:50;;;;;;;8.10;1.23;;;4.10;99.90;;;;;;4936798;29;20039;-93
2023/04/12 02:26:15;;;;;;;6.95;1.00;;;4.10;99.90;;;;;;4936763;29;20109;-93
2023/04/12 02:28:43;;;;;;;11.00;1.40;;;4.10;99.90;;;;;;4936954;29;20055;-93
2023/04/12 02:31:09;;;;;;;11.25;1.40;;;4.00;99.90;;;;;;4941249;29;20291;-93
2023/04/12 02:33:34;;;;;;;9.55;1.08;;;4.10;99.90;;;;;;4951035;29;20028;-93
2023/04/12 02:36:03;;;;;;;5.22;1.40;;;4.00;99.90;;;;;;4938995;29;20028;-92
2023/04/12 02:38:30;;;;;;;5.90;1.33;;;4.00;99.90;;;;;;4937346;29;20040;-94
2023/04/12 02:40:56;;;;;;;10.15;1.60;;;4.00;99.90;;;;;;4937831;29;20031;-92
2023/04/12 02:43:21;;;;;;;14.23;1.40;;;4.00;99.90;;;;;;4927832;29;20028;-93
2023/04/12 02:45:48;;;;;;;6.63;1.70;;;4.00;99.90;;;;;;4938213;29;20027;-92
2023/04/12 02:48:13;;;;;;;8.63;2.28;;;4.00;99.90;;;;;;4936672;29;20024;-93
2023/04/12 02:50:39;;;;;;;8.10;1.00;;;4.00;99.90;;;;;;4936625;29;20504;-92
2023/04/12 02:53:05;;;;;;;7.25;1.50;;;4.00;99.90;;;;;;4936584;29;20095;-92
2023/04/12 02:55:31;;;;;;;10.43;1.63;;;3.90;99.90;;;;;;4936360;29;20451;-92
2023/04/12 02:57:57;;;;;;;4.70;1.15;;;3.90;99.90;;;;;;4936621;29;20119;-93
2023/04/12 03:00:23;;;;;;;8.27;1.33;;;3.90;99.90;;;;;;4936617;29;20028;-93
2023/04/12 03:02:50;;;;;;;3.53;1.35;;;3.80;99.90;;;;;;4935939;29;20062;-93
2023/04/12 03:05:16;;;;;;;12.00;1.77;;;3.80;99.90;;;;;;4936072;29;20115;-93
2023/04/12 03:07:42;;;;;;;7.43;1.40;;;3.70;99.90;;;;;;4935932;29;20031;-93
2023/04/12 03:10:10;;;;;;;9.35;1.25;;;3.70;99.90;;;;;;4936078;29;20087;-92
2023/04/12 03:12:36;;;;;;;8.48;2.65;;;3.70;99.90;;;;;;4936505;29;20027;-92
2023/04/12 03:15:03;;;;;;;4.63;1.80;;;3.70;99.90;;;;;;4937299;29;20074;-92
2023/04/12 03:17:29;;;;;;;12.65;2.47;;;3.70;99.90;;;;;;4936132;29;20028;-93
2023/04/12 03:19:56;;;;;;;9.20;1.40;;;3.60;99.90;;;;;;4935893;29;20559;-92
2023/04/12 03:22:24;;;;;;;12.23;1.42;;;3.70;99.90;;;;;;4935821;29;20118;-92
2023/04/12 03:24:50;;;;;;;6.00;1.17;;;3.70;99.90;;;;;;4935789;29;20030;-92
2023/04/12 03:27:16;;;;;;;9.10;1.15;;;3.60;99.90;;;;;;4935658;29;20136;-93
2023/04/12 03:29:42;;;;;;;4.88;1.05;;;3.60;99.90;;;;;;4938502;29;20071;-91
2023/04/12 03:32:08;;;;;;;8.25;1.00;;;3.50;99.90;;;;;;4939566;29;20127;-93
2023/04/12 03:34:34;;;;;;;5.55;1.27;;;3.50;99.90;;;;;;4939421;29;20020;-93
2023/04/12 03:37:00;;;;;;;5.25;0.90;;;3.50;99.90;;;;;;4939436;29;20034;-91
2023/04/12 03:39:26;;;;;;;8.80;1.50;;;3.50;99.90;;;;;;4939370;29;20035;-92
2023/04/12 03:41:53;;;;;;;7.97;1.33;;;3.50;99.90;;;;;;4939559;29;20024;-92
2023/04/12 03:44:20;;;;;;;5.82;0.90;;;3.40;99.90;;;;;;4939859;29;20036;-92
2023/04/12 03:46:47;;;;;;;11.88;1.55;;;3.40;99.90;;;;;;4940221;29;20031;-92
2023/04/12 03:49:13;;;;;;;5.15;0.80;;;3.40;99.90;;;;;;4940278;29;20032;-93
2023/04/12 03:51:42;;;;;;;7.65;1.55;;;3.40;99.90;;;;;;4941069;29;20028;-91
2023/04/12 03:54:12;;;;;;;10.70;1.25;;;3.40;99.90;;;;;;4942921;29;20024;-92
2023/04/12 03:56:38;;;;;;;7.13;1.05;;;3.40;99.90;;;;;;4952479;29;20047;-91
2023/04/12 03:59:07;;;;;;;7.90;1.02;;;3.40;99.90;;;;;;4954166;29;20027;-92
2023/04/12 04:01:34;;;;;;;5.97;1.30;;;3.40;99.90;;;;;;4957819;29;20031;-91
2023/04/12 04:04:00;;;;;;;10.75;1.20;;;3.30;99.90;;;;;;4953282;29;20103;-93
2023/04/12 04:06:28;;;;;;;4.60;1.20;;;3.30;99.90;;;;;;4946962;29;20055;-93
2023/04/12 04:08:57;;;;;;;7.32;1.00;;;3.30;99.90;;;;;;4944899;29;20405;-93
2023/04/12 04:11:23;;;;;;;4.00;1.17;;;3.30;99.90;;;;;;4940927;29;20080;-92
2023/04/12 04:13:49;;;;;;;8.48;1.08;;;3.20;99.90;;;;;;4940828;29;20019;-93
2023/04/12 04:16:16;;;;;;;4.57;1.33;;;3.20;99.90;;;;;;4940452;29;20031;-92
2023/04/12 04:18:42;;;;;;;3.25;1.00;;;3.20;99.90;;;;;;4940887;29;20035;-93
2023/04/12 04:21:08;;;;;;;3.95;0.90;;;3.20;99.90;;;;;;4940605;29;20389;-92
2023/04/12 04:23:43;;;;;;;2.92;0.98;;;3.20;99.90;;;;;;4940010;29;20035;-92
2023/04/12 04:26:09;;;;;;;4.47;1.27;;;3.20;99.90;;;;;;4940413;29;20027;-93
2023/04/12 04:28:37;;;;;;;6.25;0.80;;;3.20;99.90;;;;;;4940157;29;20023;-92
2023/04/12 04:31:05;;;;;;;2.15;0.88;;;3.20;99.90;;;;;;4939203;29;20587;-93
2023/04/12 04:33:31;;;;;;;5.00;1.15;;;3.10;99.90;;;;;;4938892;29;20032;-93
2023/04/12 04:35:57;;;;;;;3.03;0.70;;;3.10;99.90;;;;;;4938678;29;20074;-94
2023/04/12 04:38:25;;;;;;;5.05;0.82;;;3.20;99.90;;;;;;4938835;29;20035;-92
2023/04/12 04:40:54;;;;;;;7.07;0.90;;;3.20;99.90;;;;;;4937726;29;20038;-92
2023/04/12 04:43:20;;;;;;;6.95;1.02;;;3.10;99.90;;;;;;4938229;29;20023;-93
2023/04/12 04:45:49;;;;;;;5.18;0.93;;;3.20;99.90;;;;;;4938495;29;20119;-92
2023/04/12 04:48:17;;;;;;;5.30;1.02;;;3.20;99.90;;;;;;4938627;29;20024;-93
2023/04/12 04:50:43;;;;;;;3.28;1.27;;;3.10;99.90;;;;;;4938745;29;20055;-93
2023/04/12 04:53:09;;;;;;;3.85;0.70;;;3.10;99.90;;;;;;4938473;29;20031;-93
2023/04/12 04:55:35;;;;;;;2.60;0.73;;;3.00;99.90;;;;;;4937747;29;20040;-94
2023/04/12 04:58:00;;;;;;;7.60;0.85;;;3.00;99.90;;;;;;4937909;29;20043;-92
2023/04/12 05:00:26;;;;;;;6.10;1.02;;;3.00;99.90;;;;;;4938039;29;20028;-94
2023/04/12 05:02:52;;;;;;;3.72;0.75;;;2.90;99.90;;;;;;4938009;29;20079;-93
2023/04/12 05:05:22;;;;;;;10.40;1.02;;;2.90;99.90;;;;;;4938020;29;20024;-93
2023/04/12 05:07:50;;;;;;;6.35;1.05;;;2.90;99.90;;;;;;4942445;29;20082;-93
2023/04/12 05:10:16;;;;;;;4.05;0.95;;;2.90;99.90;;;;;;4946221;29;20044;-92
2023/04/12 05:12:42;;;;;;;5.90;1.42;;;2.90;99.90;;;;;;4947792;29;20027;-92
2023/04/12 05:15:09;;;;;;;6.03;0.80;;;2.90;99.90;;;;;;4940234;29;20032;-92
2023/04/12 05:17:35;;;;;;;4.30;0.85;;;2.90;99.90;;;;;;4940004;29;20024;-91
2023/04/12 05:20:08;;;;;;;4.63;0.90;;;2.90;99.90;;;;;;4951592;29;20034;-92
2023/04/12 05:22:34;;;;;;;6.68;1.83;;;2.90;99.90;;;;;;4946999;29;20032;-92
2023/04/12 05:25:01;;;;;;;3.88;0.90;;;3.00;99.90;;;;;;4942147;29;20024;-92
2023/04/12 05:27:29;;;;;;;6.90;0.98;;;2.90;99.90;;;;;;4953443;29;20044;-91
2023/04/12 05:29:58;;;;;;;8.18;1.15;;;2.90;99.90;;;;;;4942653;29;20031;-93
2023/04/12 05:32:25;;;;;;;7.95;1.38;;;2.90;99.90;;;;;;4940049;29;20031;-92
2023/04/12 05:34:51;;;;;;;12.65;1.88;;;2.90;99.90;;;;;;4939470;29;20493;-92
2023/04/12 05:37:18;;;;;;;6.15;1.08;;;2.90;99.90;;;;;;4938227;29;20031;-93
2023/04/12 05:39:44;;;;;;;3.30;0.80;;;2.90;99.90;;;;;;4938211;29;20055;-92
2023/04/12 05:42:10;;;;;;;5.38;1.17;;;2.90;99.90;;;;;;4937776;29;20063;-93
2023/04/12 05:44:37;;;;;;;5.90;0.70;;;2.80;99.90;;;;;;4937702;29;20054;-93
2023/04/12 05:47:03;;;;;;;5.63;0.98;;;2.90;99.90;;;;;;4944009;29;20019;-92
2023/04/12 05:49:32;;;;;;;6.93;0.93;;;2.80;99.90;;;;;;4931764;29;20028;-92
2023/04/12 05:51:58;;;;;;;6.47;0.77;;;2.80;99.90;;;;;;4936172;29;20031;-94
2023/04/12 05:54:24;;;;;;;5.72;0.93;;;2.90;99.90;;;;;;4936428;29;20083;-92
2023/04/12 05:56:53;;;;;;;13.05;1.33;;;2.90;99.90;;;;;;4936569;29;20135;-93
2023/04/12 05:59:19;;;;;;;7.85;1.23;;;2.80;99.90;;;;;;4936459;29;20028;-92
2023/04/12 06:01:45;;;;;;;5.45;0.90;;;2.80;99.90;;;;;;4930103;29;20032;-93
2023/04/12 06:04:11;;;;;;;5.85;1.27;;;2.90;99.90;;;;;;4936032;29;20083;-93
2023/04/12 06:06:36;;;;;;;7.38;0.93;;;2.90;99.90;;;;;;4936220;29;20027;-94
2023/04/12 06:09:03;;;;;;;5.82;0.73;;;2.90;99.90;;;;;;4919825;29;20067;-93
2023/04/12 06:11:32;;;;;;;7.88;1.13;;;3.00;99.90;;;;;;4917084;29;20051;-92
2023/04/12 06:13:59;;;;;;;6.07;0.90;;;2.90;99.90;;;;;;4924898;29;20362;-93
2023/04/12 06:16:25;;;;;;;15.20;1.48;;;3.00;99.90;;;;;;4931499;29;20110;-93
2023/04/12 06:18:50;;;;;;;7.03;1.52;;;3.10;99.90;;;;;;4936144;29;20047;-92
2023/04/12 06:21:17;;;;;;;7.60;1.13;;;3.10;99.90;;;;;;4936255;29;20031;-94
2023/04/12 06:23:43;;;;;;;11.82;1.13;;;3.10;99.90;;;;;;4936028;29;20191;-92
2023/04/12 06:26:09;;;;;;;5.90;0.85;;;3.20;99.90;;;;;;4936092;29;20040;-91
2023/04/12 06:28:35;;;;;;;9.38;1.35;;;3.20;99.90;;;;;;4935989;29;20096;-93
2023/04/12 06:31:01;;;;;;;8.45;0.88;;;3.30;99.90;;;;;;4924378;29;20055;-93
2023/04/12 06:33:26;;;;;;;5.63;0.80;;;3.30;99.90;;;;;;4934489;29;20024;-92
2023/04/12 06:35:52;;;;;;;8.38;0.93;;;3.40;99.90;;;;;;4935658;29;20079;-94
2023/04/12 06:38:18;;;;;;;7.53;0.90;;;3.40;99.90;;;;;;4935972;29;20047;-92
2023/04/12 06:40:44;;;;;;;5.22;1.00;;;3.40;99.90;;;;;;4936152;29;20508;-91
2023/04/12 06:43:09;;;;;;;4.78;0.60;;;3.50;99.90;;;;;;4936842;29;20119;-92
2023/04/12 06:45:35;;;;;;;11.45;1.08;;;3.50;99.90;;;;;;4948054;29;20287;-92
2023/04/12 06:48:01;;;;;;;5.72;1.00;;;3.50;99.90;;;;;;4930843;29;20020;-93
2023/04/12 06:50:26;;;;;;;5.40;0.63;;;3.50;99.90;;;;;;4936383;29;20039;-92
2023/04/12 06:52:52;;;;;;;6.53;0.85;;;3.70;99.90;;;;;;4930748;29;20020;-93
2023/04/12 06:55:19;;;;;;;6.20;0.98;;;3.70;99.90;;;;;;4935116;29;20035;-92
2023/04/12 06:57:45;;;;;;;3.95;1.30;;;3.80;99.90;;;;;;4934679;29;20040;-91
2023/04/12 07:00:11;;;;;;;10.25;1.23;;;3.90;99.90;;;;;;4935238;29;20063;-92
2023/04/12 07:02:38;;;;;;;3.92;0.82;;;3.90;99.90;;;;;;4934634;29;20419;-92
2023/04/12 07:05:07;;;;;;;9.07;0.90;;;3.90;99.90;;;;;;4932390;29;20060;-92
2023/04/12 07:07:33;;;;;;;9.73;1.73;;;4.00;99.90;;;;;;4935472;29;20479;-92
2023/04/12 07:09:59;;;;;;;4.85;1.42;;;4.00;99.90;;;;;;4936205;29;20035;-92
2023/04/12 07:12:25;;;;;;;5.90;0.90;;;4.10;99.90;;;;;;4935822;29;20122;-92
2023/04/12 07:14:50;;;;;;;5.70;1.00;;;4.20;99.90;;;;;;4935477;29;20059;-92
2023/04/12 07:17:16;;;;;;;1.55;0.43;;;4.20;99.90;;;;;;4930070;29;20032;-92
2023/04/12 07:19:43;;;;;;;6.70;1.58;;;4.20;99.90;;;;;;4935445;29;20032;-92
2023/04/12 07:22:09;;;;;;;7.25;0.80;;;4.20;99.90;;;;;;4934055;29;20027;-91
2023/04/12 07:24:34;;;;;;;3.67;1.38;;;4.20;99.90;;;;;;4922795;29;20032;-92
2023/04/12 07:27:00;;;;;;;8.77;0.90;;;4.20;99.90;;;;;;4928745;29;20028;-91
2023/04/12 07:29:26;;;;;;;3.28;0.70;;;4.30;99.90;;;;;;4934539;29;20122;-92
2023/04/12 07:31:54;;;;;;;2.63;0.65;;;4.30;99.90;;;;;;4935258;29;20484;-93
2023/04/12 07:34:20;;;;;;;4.38;1.00;;;4.40;99.90;;;;;;4935664;29;20393;-92
2023/04/12 07:36:46;;;;;;;6.28;1.00;;;4.40;99.90;;;;;;4936551;29;20023;-93
2023/04/12 07:39:13;;;;;;;9.52;2.92;;;4.50;99.90;;;;;;4936469;29;20107;-92
2023/04/12 07:41:41;;;;;;;2.40;0.98;;;4.50;99.90;;;;;;4941211;29;20028;-92
2023/04/12 07:44:07;;;;;;;3.28;0.80;;;4.60;99.90;;;;;;4944375;29;20024;-92
2023/04/12 07:46:33;;;;;;;4.97;0.82;;;4.70;99.90;;;;;;4940566;29;20024;-93
2023/04/12 07:48:59;;;;;;;2.58;0.75;;;4.80;99.90;;;;;;4940926;29;20690;-91
2023/04/12 07:51:25;;;;;;;5.55;1.08;;;4.80;99.90;;;;;;4936512;29;20630;-93
2023/04/12 07:53:51;;;;;;;4.82;0.70;;;4.90;99.90;;;;;;4930652;29;20030;-91
2023/04/12 07:56:17;;;;;;;8.20;0.90;;;5.00;99.90;;;;;;4924139;29;20134;-91
2023/04/12 07:58:42;;;;;;;11.20;1.35;;;5.00;99.90;;;;;;4935023;29;20027;-90
2023/04/12 08:01:12;;;;;;;7.45;1.65;;;5.00;99.90;;;;;;4935023;29;20421;-91
2023/04/12 08:03:38;;;;;;;7.32;0.95;;;5.00;99.90;;;;;;4934452;29;20051;-91
2023/04/12 08:06:04;;;;;;;2.72;1.25;;;5.10;99.90;;;;;;4934883;29;20469;-92
2023/04/12 08:08:30;;;;;;;5.47;1.27;;;5.20;99.90;;;;;;4943788;29;20027;-92
2023/04/12 08:10:56;;;;;;;6.30;1.20;;;5.10;99.90;;;;;;4937751;29;20103;-91
2023/04/12 08:13:21;;;;;;;7.78;1.30;;;5.20;99.90;;;;;;4921408;29;20060;-90
2023/04/12 08:15:50;;;;;;;2.42;0.85;;;5.30;99.90;;;;;;4933564;29;20393;-92
2023/04/12 08:18:16;;;;;;;3.35;0.80;;;5.40;99.90;;;;;;4939748;29;20028;-91
2023/04/12 08:20:43;;;;;;;9.10;1.10;;;5.40;99.90;;;;;;4937272;29;20106;-92
2023/04/12 08:23:09;;;;;;;8.32;0.75;;;5.50;99.90;;;;;;4938443;29;20027;-91
2023/04/12 08:25:35;;;;;;;4.47;0.95;;;5.60;99.90;;;;;;4937471;29;20028;-91
2023/04/12 08:28:02;;;;;;;3.85;0.75;;;5.60;99.90;;;;;;4936204;29;20032;-93
2023/04/12 08:30:28;;;;;;;5.03;0.82;;;5.60;99.90;;;;;;4927883;29;20516;-91
2023/04/12 08:32:54;;;;;;;8.90;1.30;;;5.60;99.90;;;;;;4936560;29;20462;-92
2023/04/12 08:35:21;;;;;;;3.38;0.45;;;5.70;99.90;;;;;;4929669;29;20031;-92
2023/04/12 08:37:47;;;;;;;2.63;0.82;;;5.80;99.90;;;;;;4937993;29;20016;-91
2023/04/12 08:40:13;;;;;;;4.85;1.10;;;5.80;99.90;;;;;;4934613;29;20378;-91
2023/04/12 08:42:40;;;;;;;3.72;1.25;;;5.80;99.90;;;;;;4945436;28;20442;-90
2023/04/12 08:45:07;;;;;;;8.82;0.95;;;5.90;99.90;;;;;;4934217;29;20054;-91
2023/04/12 08:47:36;;;;;;;4.43;0.90;;;6.00;99.90;;;;;;4925213;29;20146;-89
2023/04/12 08:50:02;;;;;;;3.95;0.80;;;6.00;99.90;;;;;;4924188;29;20042;-92
2023/04/12 08:52:28;;;;;;;4.97;0.90;;;6.00;99.90;;;;;;4935109;29;20023;-90
2023/04/12 08:54:56;;;;;;;2.65;0.52;;;6.10;99.90;;;;;;4936577;29;20036;-90
2023/04/12 08:57:23;;;;;;;2.45;0.70;;;6.20;99.90;;;;;;4933307;29;20044;-91
2023/04/12 08:59:51;;;;;;;5.32;0.82;;;6.30;99.90;;;;;;4937571;29;20024;-89
2023/04/12 09:02:16;;;;;;;3.22;0.75;;;6.30;99.90;;;;;;4937757;29;20134;-90
2023/04/12 09:04:49;;;;;;;8.60;1.00;;;6.40;99.90;;;;;;4938998;29;20114;-91
2023/04/12 09:07:15;;;;;;;7.82;0.88;;;6.50;99.90;;;;;;4937616;29;20131;-90
2023/04/12 09:09:46;;;;;;;9.43;1.35;;;6.60;99.90;;;;;;4937250;29;20031;-91
2023/04/12 09:12:12;;;;;;;;;;;6.70;99.90;;;;;;4937593;29;20035;-91
2023/04/12 09:14:42;;;;;;;2.42;0.22;;;6.80;99.90;;;;;;4956239;28;20329;-91
2023/04/12 09:17:26;;;;;;;5.30;0.70;;;6.90;99.90;;;;;;4939627;29;20560;-91
2023/04/12 09:19:54;;;;;;;6.07;0.65;;;6.90;99.90;;;;;;4937056;29;20038;-91
2023/04/12 09:22:33;;;;;;;6.65;0.82;;;7.00;99.90;;;;;;4937012;29;20030;-92
2023/04/12 09:24:58;;;;;;;3.83;0.98;;;7.00;99.90;;;;;;4936996;29;20039;-92
2023/04/12 09:27:27;;;;;;;3.10;0.77;;;7.10;99.90;;;;;;4936139;29;20374;-92
2023/04/12 09:30:05;;;;;;;7.47;1.10;;;7.10;99.90;;;;;;4941757;29;20489;-90
2023/04/12 09:32:31;;;;;;;8.73;1.77;;;7.10;99.90;;;;;;4937126;29;20042;-92
2023/04/12 09:35:00;;;;;;;3.15;0.85;;;7.10;99.90;;;;;;4936504;29;20031;-91
2023/04/12 09:37:25;;;;;;;6.13;1.20;;;7.20;99.90;;;;;;4933517;29;20039;-91
2023/04/12 09:40:03;;;;;;;3.15;0.90;;;7.20;99.90;;;;;;4936269;29;20024;-91
2023/04/12 09:42:29;;;;;;;6.05;0.90;;;7.10;99.90;;;;;;4926650;29;20051;-90
2023/04/12 09:44:57;;;;;;;4.22;0.65;;;7.10;99.90;;;;;;4940021;29;20127;-91
2023/04/12 09:47:43;;;;;;;1.33;0.60;;;7.10;99.90;;;;;;4937920;29;20030;-90
2023/04/12 09:50:18;;;;;;;4.35;1.20;;;7.00;99.90;;;;;;4935358;29;20072;-90
2023/04/12 09:52:44;;;;;;;5.60;1.20;;;7.00;99.90;;;;;;4935777;29;20091;-91
2023/04/12 09:55:11;;;;;;;6.50;0.88;;;7.00;99.90;;;;;;4934902;29;20024;-90
2023/04/12 09:57:42;;;;;;;5.22;0.82;;;6.90;99.90;;;;;;4927930;29;20136;-90
2023/04/12 10:00:18;;;;;;;6.78;0.88;;;6.80;99.90;;;;;;4924974;29;20052;-91
2023/04/12 10:02:53;;;;;;;6.03;1.35;;;6.70;99.90;;;;;;4940057;29;20043;-91
2023/04/12 10:05:21;;;;;;;4.53;0.77;;;6.60;99.90;;;;;;4917603;29;20032;-91
2023/04/12 10:07:48;;;;;;;2.70;1.10;;;6.60;99.90;;;;;;4927972;29;20410;-90
2023/04/12 10:10:15;;;;;;;4.28;0.90;;;6.50;99.90;;;;;;4918126;29;20044;-91
2023/04/12 10:12:43;;;;;;;11.07;2.28;;;6.40;99.90;;;;;;4940184;29;20036;-89
2023/04/12 10:15:16;;;;;;;5.13;1.00;;;6.40;99.90;;;;;;4942581;29;20030;-89
2023/04/12 10:17:50;;;;;;;7.28;1.08;;;6.40;99.90;;;;;;4943103;29;20020;-90
2023/04/12 10:20:17;;;;;;;2.75;0.73;;;6.40;99.90;;;;;;4928704;29;20024;-90
2023/04/12 10:22:51;;;;;;;3.00;0.90;;;6.30;99.90;;;;;;4936430;29;20039;-90
2023/04/12 10:25:22;;;;;;;6.45;1.00;;;6.20;99.90;;;;;;4934085;29;20031;-88
2023/04/12 10:27:48;;;;;;;3.88;0.85;;;6.10;99.90;;;;;;4940111;29;20028;-86
2023/04/12 10:30:26;;;;;;;5.10;0.90;;;6.10;99.90;;;;;;4933011;29;20405;-88
2023/04/12 10:33:04;;;;;;;5.60;0.80;;;6.00;99.90;;;;;;4938018;29;20088;-88
2023/04/12 10:35:48;;;;;;;10.23;1.80;;;5.90;99.90;;;;;;4926361;29;20502;-87
2023/04/12 10:38:15;;;;;;;8.15;1.20;;;5.80;99.90;;;;;;4926753;29;20116;-87
2023/04/12 10:41:07;;;;;;;9.13;1.05;;;5.70;99.90;;;;;;4921913;29;20016;-89
2023/04/12 10:43:33;;;;;;;6.78;0.77;;;5.60;99.90;;;;;;4933051;29;20032;-89
2023/04/12 10:46:03;;;;;;;1.23;0.55;;;5.60;99.90;;;;;;4929123;29;20016;-88
2023/04/12 10:48:37;;;;;;;5.15;0.80;;;5.60;99.90;;;;;;4927868;29;20028;-88
2023/04/12 10:51:26;;;;;;;4.20;0.98;;;5.50;99.90;;;;;;4929691;29;20123;-86
2023/04/12 10:53:53;;;;;;;5.38;1.00;;;5.50;99.90;;;;;;4923492;29;20168;-89
2023/04/12 10:56:30;;;;;;;7.88;1.10;;;5.60;99.90;;;;;;4927755;29;20051;-88
2023/04/12 10:59:04;;;;;;;4.90;1.10;;;5.70;99.90;;;;;;4925578;29;20038;-87
2023/04/12 11:01:30;;;;;;;8.45;1.42;;;5.70;99.90;;;;;;4933174;29;20055;-87
2023/04/12 11:04:16;;;;;;;6.22;0.90;;;5.70;99.90;;;;;;4931955;29;20027;-86
2023/04/12 11:06:51;;;;;;;3.97;0.63;;;5.70;99.90;;;;;;4930817;29;20031;-87
2023/04/12 11:09:27;;;;;;;4.05;1.05;;;5.80;99.90;;;;;;4930153;29;20035;-88
2023/04/12 11:11:57;;;;;;;11.40;2.00;;;5.80;99.90;;;;;;4924996;29;20044;-88
2023/04/12 11:14:44;;;;;;;3.30;0.77;;;5.80;99.90;;;;;;4931757;29;20028;-87
2023/04/12 11:17:10;;;;;;;3.17;1.17;;;5.80;99.90;;;;;;4923692;29;20025;-88
2023/04/12 11:19:41;;;;;;;4.80;1.17;;;5.80;99.90;;;;;;4934417;29;20030;-87
2023/04/12 11:22:09;;;;;;;9.82;0.90;;;5.80;99.90;;;;;;4934106;29;20051;-86
2023/04/12 11:24:55;;;;;;;8.07;1.20;;;5.80;99.90;;;;;;4935204;29;20087;-86
2023/04/12 11:27:23;;;;;;;10.98;1.50;;;5.70;99.90;;;;;;4941670;29;20544;-94
2023/04/12 11:29:54;;;;;;;6.30;0.95;;;5.70;99.90;;;;;;4950982;29;20051;-95
2023/04/12 11:32:26;;;;;;;8.68;1.25;;;5.70;99.90;;;;;;4947580;29;20032;-93
2023/04/12 11:34:57;;;;;;;11.32;1.17;;;5.60;99.90;;;;;;4939938;29;20051;-91
2023/04/12 11:37:29;;;;;;;8.95;1.58;;;5.60;99.90;;;;;;4932104;29;20027;-92
2023/04/12 11:40:00;;;;;;;9.65;2.53;;;5.50;99.90;;;;;;4925306;29;20060;-94
2023/04/12 11:42:28;;;;;;;7.40;0.85;;;5.50;99.90;;;;;;4937239;29;20107;-93
2023/04/12 11:44:57;;;;;;;8.07;1.50;;;5.50;99.90;;;;;;4930544;29;20054;-92
2023/04/12 11:47:24;;;;;;;9.20;1.35;;;5.60;99.90;;;;;;4939776;29;20511;-92
2023/04/12 11:49:55;;;;;;;14.32;1.60;;;5.80;99.90;;;;;;4940530;29;20035;-92
2023/04/12 11:52:30;;;;;;;3.92;1.20;;;5.90;99.90;;;;;;4941595;29;20043;-94
2023/04/12 11:55:03;;;;;;;11.95;1.15;;;6.00;99.90;;;;;;4940682;29;20087;-92
2023/04/12 11:57:29;;;;;;;9.68;1.42;;;6.10;99.90;;;;;;4940894;29;20051;-95
2023/04/12 12:00:05;;;;;;;9.00;1.38;;;6.10;99.90;;;;;;4949784;29;20079;-94
2023/04/12 12:02:32;;;;;;;7.70;0.85;;;6.10;99.90;;;;;;4944220;29;20038;-93
2023/04/12 12:04:58;;;;;;;5.15;0.93;;;6.20;99.90;;;;;;4942773;29;20167;-94
2023/04/12 12:07:24;;;;;;;2.75;0.75;;;6.20;99.90;;;;;;4942049;29;20055;-95
2023/04/12 12:09:50;;;;;;;1.75;0.73;;;6.10;99.90;;;;;;4944028;29;20059;-95
2023/04/12 12:12:17;;;;;;;3.80;1.00;;;6.10;99.90;;;;;;4943877;29;20039;-94
2023/04/12 12:14:46;;;;;;;9.73;1.17;;;6.20;99.90;;;;;;4940496;29;20024;-93
2023/04/12 12:17:14;;;;;;;9.27;0.70;;;6.20;99.90;;;;;;4941723;29;20035;-96
2023/04/12 12:19:42;;;;;;;4.45;0.68;;;6.20;99.90;;;;;;4942247;29;20119;-93
2023/04/12 12:22:18;;;;;;;5.97;0.60;;;6.20;99.90;;;;;;4945213;29;20032;-93
2023/04/12 12:24:54;;;;;;;4.75;0.85;;;6.20;99.90;;;;;;4942034;29;20031;-94
2023/04/12 12:27:29;;;;;;;5.47;0.82;;;6.30;99.90;;;;;;4941771;29;20039;-93
2023/04/12 12:29:55;;;;;;;6.88;1.35;;;6.40;99.90;;;;;;4957328;28;20047;-93
2023/04/12 12:32:26;;;;;;;3.45;0.73;;;6.40;99.90;;;;;;4941686;28;20035;-93
2023/04/12 12:34:53;;;;;;;;;;;6.40;99.90;;;;;;4942553;29;20024;-94
2023/04/12 12:37:26;;;;;;;2.58;1.02;;;6.50;99.90;;;;;;4957390;28;19907;-93
2023/04/12 12:40:15;;;;;;;3.45;0.70;;;6.50;99.90;;;;;;4944804;29;20059;-94
2023/04/12 12:42:54;;;;;;;3.45;0.75;;;6.50;99.90;;;;;;4942346;29;20035;-94
2023/04/12 12:45:22;;;;;;;2.55;0.75;;;6.50;99.90;;;;;;4941602;29;20107;-95
2023/04/12 12:47:53;;;;;;;1.90;0.80;;;6.60;99.90;;;;;;4942398;29;20028;-94
2023/04/12 12:50:23;;;;;;;1.42;0.50;;;6.60;99.90;;;;;;4955063;28;20052;-94
2023/04/12 12:52:49;;;;;;;5.33;0.77;;;6.60;99.90;;;;;;4940254;29;20063;-93
2023/04/12 12:55:16;;;;;;;4.28;0.85;;;6.70;99.90;;;;;;4943822;29;20023;-95
2023/04/12 12:57:43;;;;;;;4.00;1.10;;;6.80;99.90;;;;;;4931798;29;20617;-95
2023/04/12 13:00:11;;;;;;;2.83;0.70;;;7.00;99.90;;;;;;4923650;29;20042;-94
2023/04/12 13:02:37;;;;;;;3.83;0.95;;;7.10;99.90;;;;;;4934603;29;20024;-94